createdAt,value
2019-03-31T00:01:15.535Z,9.30
2019-03-31T00:03:53.501Z,9.30
2019-03-31T00:06:31.345Z,9.40
2019-03-31T00:09:09.811Z,9.40
2019-03-31T00:11:47.567Z,9.40
2019-03-31T00:14:25.816Z,9.40
2019-03-31T00:17:03.552Z,9.40
2019-03-31T00:19:41.499Z,9.40
2019-03-31T00:22:19.831Z,9.40
2019-03-31T00:24:57.713Z,9.30
2019-03-31T00:27:35.957Z,9.20
2019-03-31T00:30:14.220Z,9.10
2019-03-31T00:32:52.639Z,9.10
2019-03-31T00:35:30.414Z,9.10
2019-03-31T00:38:08.313Z,9.10
2019-03-31T00:40:46.898Z,9.10
2019-03-31T00:43:24.750Z,9.20
2019-03-31T00:46:03.611Z,9.30
2019-03-31T00:48:45.454Z,9.30
2019-03-31T00:51:23.555Z,9.20
2019-03-31T00:54:08.338Z,9.20
2019-03-31T00:56:46.657Z,9.30
2019-03-31T00:59:24.450Z,9.30
2019-03-31T01:02:08.360Z,9.30
2019-03-31T01:04:46.498Z,9.30
2019-03-31T01:07:26.246Z,9.30
2019-03-31T01:10:07.577Z,9.30
2019-03-31T01:12:47.074Z,9.30
2019-03-31T01:15:25.250Z,9.40
2019-03-31T01:18:15.002Z,9.40
2019-03-31T01:20:53.043Z,9.40
2019-03-31T01:23:30.832Z,9.40
2019-03-31T01:26:08.859Z,9.40
2019-03-31T01:28:46.846Z,9.40
2019-03-31T01:31:28.112Z,9.30
2019-03-31T01:34:04.628Z,9.30
2019-03-31T01:36:42.530Z,9.20
2019-03-31T01:39:21.963Z,9.20
2019-03-31T01:42:00.556Z,9.20
2019-03-31T01:44:38.940Z,9.20
2019-03-31T01:47:17.194Z,9.20
2019-03-31T01:49:55.227Z,9.20
2019-03-31T01:52:33.168Z,9.20
2019-03-31T01:55:11.260Z,9.10
2019-03-31T01:57:49.171Z,9.10
2019-03-31T02:00:49.133Z,9.00
2019-03-31T02:03:27.467Z,9.00
2019-03-31T02:06:05.841Z,9.00
2019-03-31T02:08:43.568Z,9.10
2019-03-31T02:11:22.205Z,9.10
2019-03-31T02:14:00.139Z,9.10
2019-03-31T02:16:39.275Z,9.00
2019-03-31T02:19:17.852Z,9.00
2019-03-31T02:21:56.115Z,9.00
2019-03-31T02:24:33.990Z,9.00
2019-03-31T02:27:12.304Z,9.00
2019-03-31T02:29:50.556Z,8.90
2019-03-31T02:32:28.381Z,8.90
2019-03-31T02:35:17.668Z,8.90
2019-03-31T02:37:55.923Z,8.90
2019-03-31T02:40:34.099Z,8.90
2019-03-31T02:43:11.986Z,8.80
2019-03-31T02:45:50.113Z,8.70
2019-03-31T02:48:28.837Z,8.70
2019-03-31T02:51:06.698Z,8.60
2019-03-31T02:53:56.457Z,8.60
2019-03-31T02:56:35.805Z,8.50
2019-03-31T02:59:15.972Z,8.50
2019-03-31T03:01:54.986Z,8.50
2019-03-31T03:04:34.922Z,8.40
2019-03-31T03:07:15.422Z,8.40
2019-03-31T03:09:54.238Z,8.30
2019-03-31T03:12:35.552Z,8.30
2019-03-31T03:15:19.261Z,8.30
2019-03-31T03:17:57.194Z,8.20
2019-03-31T03:20:35.423Z,8.20
2019-03-31T03:23:13.364Z,8.10
2019-03-31T03:25:56.427Z,8.10
2019-03-31T03:28:30.705Z,8.10
2019-03-31T03:31:15.033Z,8.10
2019-03-31T03:33:48.568Z,8.20
2019-03-31T03:36:27.433Z,8.20
2019-03-31T03:39:07.544Z,8.10
2019-03-31T03:41:56.643Z,8.10
2019-03-31T03:44:34.382Z,8.10
2019-03-31T03:47:12.383Z,8.10
2019-03-31T03:49:50.308Z,8.00
2019-03-31T03:52:29.523Z,8.10
2019-03-31T03:55:07.546Z,8.10
2019-03-31T03:57:45.516Z,8.10
2019-03-31T04:00:23.457Z,8.10
2019-03-31T04:03:29.113Z,8.10
2019-03-31T04:05:52.506Z,8.10
2019-03-31T04:08:30.685Z,8.10
2019-03-31T04:11:25.812Z,8.00
2019-03-31T04:14:04.573Z,8.00
2019-03-31T04:16:44.185Z,7.90
2019-03-31T04:19:23.135Z,7.90
2019-03-31T04:22:01.018Z,7.80
2019-03-31T04:24:50.501Z,7.80
2019-03-31T04:27:28.754Z,7.70
2019-03-31T04:30:07.302Z,7.70
2019-03-31T04:32:44.950Z,7.70
2019-03-31T04:35:34.385Z,7.70
2019-03-31T04:38:12.815Z,7.70
2019-03-31T04:40:52.015Z,7.70
2019-03-31T04:43:30.575Z,7.70
2019-03-31T04:46:08.766Z,7.70
2019-03-31T04:48:46.591Z,7.80
2019-03-31T04:51:24.855Z,7.80
2019-03-31T04:54:03.156Z,7.90
2019-03-31T04:56:42.716Z,8.00
2019-03-31T04:59:20.903Z,8.20
2019-03-31T05:01:58.875Z,8.30
2019-03-31T05:04:37.065Z,8.40
2019-03-31T05:07:15.031Z,8.40
2019-03-31T05:09:53.011Z,8.40
2019-03-31T05:12:30.922Z,8.30
2019-03-31T05:15:09.105Z,8.20
2019-03-31T05:17:47.368Z,8.50
2019-03-31T05:20:26.551Z,8.90
2019-03-31T05:23:04.877Z,9.20
2019-03-31T05:25:43.637Z,9.50
2019-03-31T05:28:21.879Z,9.70
2019-03-31T05:30:59.814Z,9.70
2019-03-31T05:33:38.109Z,9.60
2019-03-31T05:36:16.065Z,9.70
2019-03-31T05:38:54.409Z,10.00
2019-03-31T05:41:32.175Z,10.20
2019-03-31T05:44:10.069Z,10.20
2019-03-31T05:46:48.038Z,9.80
2019-03-31T05:49:26.040Z,9.40
2019-03-31T05:52:04.206Z,9.60
2019-03-31T05:54:42.055Z,9.50
2019-03-31T05:57:20.056Z,9.50
2019-03-31T05:59:58.194Z,9.30
2019-03-31T06:02:36.251Z,9.30
2019-03-31T06:05:14.422Z,9.60
2019-03-31T06:07:52.193Z,10.30
2019-03-31T06:10:30.454Z,11.00
2019-03-31T06:13:08.306Z,11.10
2019-03-31T06:15:47.864Z,11.70
2019-03-31T06:18:26.994Z,11.90
2019-03-31T06:21:04.965Z,12.20
2019-03-31T06:23:43.398Z,11.80
2019-03-31T06:26:21.170Z,11.00
2019-03-31T06:28:59.706Z,10.30
2019-03-31T06:31:38.162Z,9.80
2019-03-31T06:34:16.076Z,9.80
2019-03-31T06:36:55.020Z,9.70
2019-03-31T06:39:34.378Z,9.80
2019-03-31T06:42:13.646Z,9.80
2019-03-31T06:44:51.720Z,9.40
2019-03-31T06:47:29.540Z,9.20
2019-03-31T06:50:08.982Z,9.30
2019-03-31T06:52:46.942Z,9.30
2019-03-31T06:55:24.911Z,9.60
2019-03-31T06:58:02.860Z,9.80
2019-03-31T07:00:41.509Z,9.80
2019-03-31T07:03:19.507Z,10.90
2019-03-31T07:05:57.836Z,11.50
2019-03-31T07:08:36.134Z,10.90
2019-03-31T07:11:14.005Z,10.90
2019-03-31T07:13:52.799Z,11.00
2019-03-31T07:16:31.004Z,12.60
2019-03-31T07:19:09.741Z,14.00
2019-03-31T07:21:48.142Z,13.40
2019-03-31T07:24:25.991Z,12.20
2019-03-31T07:27:04.755Z,12.10
2019-03-31T07:29:42.733Z,12.90
2019-03-31T07:32:20.993Z,13.90
2019-03-31T07:34:59.010Z,14.30
2019-03-31T07:37:47.186Z,15.00
2019-03-31T07:40:17.210Z,15.20
2019-03-31T07:42:55.183Z,14.90
2019-03-31T07:45:33.096Z,14.70
2019-03-31T07:48:11.066Z,15.30
2019-03-31T07:50:49.258Z,16.00
2019-03-31T07:53:27.065Z,16.10
2019-03-31T07:56:04.840Z,16.30
2019-03-31T07:58:43.107Z,17.30
2019-03-31T08:01:21.369Z,17.30
2019-03-31T08:03:59.754Z,17.70
2019-03-31T08:06:37.756Z,17.90
2019-03-31T08:09:15.801Z,17.90
2019-03-31T08:11:53.773Z,18.30
2019-03-31T08:14:32.654Z,18.60
2019-03-31T08:17:10.513Z,19.10
2019-03-31T08:19:48.257Z,18.30
2019-03-31T08:22:26.198Z,18.10
2019-03-31T08:25:04.260Z,18.20
2019-03-31T08:27:42.214Z,19.00
2019-03-31T08:30:20.371Z,18.80
2019-03-31T08:32:58.300Z,18.80
2019-03-31T08:35:46.718Z,18.70
2019-03-31T08:38:15.639Z,19.50
2019-03-31T08:40:53.571Z,19.80
2019-03-31T08:43:31.655Z,18.40
2019-03-31T08:46:09.531Z,19.10
2019-03-31T08:48:48.355Z,18.90
2019-03-31T08:51:27.043Z,18.50
2019-03-31T08:54:05.266Z,18.50
2019-03-31T08:56:43.031Z,17.10
2019-03-31T08:59:20.729Z,17.30
2019-03-31T09:01:58.660Z,16.40
2019-03-31T09:04:37.022Z,16.40
2019-03-31T09:07:15.323Z,17.30
2019-03-31T09:09:54.741Z,17.70
2019-03-31T09:12:32.776Z,17.50
2019-03-31T09:15:12.867Z,17.90
2019-03-31T09:17:53.999Z,17.90
2019-03-31T09:20:30.891Z,18.20
2019-03-31T09:23:08.673Z,18.00
2019-03-31T09:25:47.799Z,17.50
2019-03-31T09:28:26.422Z,17.90
2019-03-31T09:31:05.939Z,17.50
2019-03-31T09:33:44.765Z,16.80
2019-03-31T09:36:24.108Z,17.00
2019-03-31T09:39:01.955Z,19.20
2019-03-31T09:41:40.972Z,19.40
2019-03-31T09:44:18.686Z,18.00
2019-03-31T09:46:57.080Z,18.10
2019-03-31T09:49:36.077Z,18.80
2019-03-31T09:52:14.894Z,20.50
2019-03-31T09:54:52.850Z,20.40
2019-03-31T09:57:30.742Z,19.50
2019-03-31T10:00:10.190Z,18.80
2019-03-31T10:02:48.202Z,18.90
2019-03-31T10:05:26.051Z,18.50
2019-03-31T10:08:03.922Z,19.30
2019-03-31T10:10:41.800Z,19.90
2019-03-31T10:13:20.530Z,21.00
2019-03-31T10:15:58.436Z,20.10
2019-03-31T10:18:36.380Z,17.70
2019-03-31T10:21:14.349Z,17.30
2019-03-31T10:23:52.210Z,18.20
2019-03-31T10:26:31.987Z,18.90
2019-03-31T10:29:21.137Z,18.90
2019-03-31T10:31:59.116Z,18.60
2019-03-31T10:34:37.121Z,18.40
2019-03-31T10:37:15.520Z,16.80
2019-03-31T10:39:53.799Z,16.60
2019-03-31T10:42:31.567Z,16.50
2019-03-31T10:45:10.325Z,16.00
2019-03-31T10:47:48.278Z,16.80
2019-03-31T10:50:26.106Z,17.50
2019-03-31T10:53:04.856Z,16.80
2019-03-31T10:55:42.703Z,16.20
2019-03-31T10:58:21.011Z,16.70
2019-03-31T11:00:59.349Z,17.10
2019-03-31T11:03:48.576Z,17.60
2019-03-31T11:06:26.297Z,18.10
2019-03-31T11:09:06.599Z,17.40
2019-03-31T11:11:44.322Z,17.60
2019-03-31T11:14:22.094Z,17.90
2019-03-31T11:17:00.420Z,18.30
2019-03-31T11:19:38.744Z,17.00
2019-03-31T11:22:50.605Z,16.40
2019-03-31T11:25:30.001Z,17.50
2019-03-31T11:28:07.978Z,17.00
2019-03-31T11:30:47.133Z,15.30
2019-03-31T11:33:25.395Z,15.80
2019-03-31T11:36:03.528Z,16.40
2019-03-31T11:38:46.067Z,16.40
2019-03-31T11:41:24.777Z,15.90
2019-03-31T11:44:02.642Z,15.50
2019-03-31T11:46:40.604Z,15.80
2019-03-31T11:49:18.543Z,15.50
2019-03-31T11:51:56.352Z,15.50
2019-03-31T11:54:34.204Z,14.90
2019-03-31T11:57:12.270Z,14.70
2019-03-31T11:59:50.550Z,15.00
2019-03-31T12:02:29.570Z,15.30
2019-03-31T12:05:07.600Z,15.60
2019-03-31T12:07:47.406Z,15.50
2019-03-31T12:10:26.518Z,15.30
2019-03-31T12:13:04.612Z,15.00
2019-03-31T12:15:42.626Z,14.40
2019-03-31T12:18:20.601Z,14.30
2019-03-31T12:20:58.347Z,14.80
2019-03-31T12:23:36.423Z,15.30
2019-03-31T12:26:14.251Z,15.80
2019-03-31T12:28:51.982Z,15.40
2019-03-31T12:31:30.465Z,15.60
2019-03-31T12:34:08.332Z,15.60
2019-03-31T12:36:46.192Z,14.80
2019-03-31T12:39:24.042Z,15.20
2019-03-31T12:42:01.859Z,15.10
2019-03-31T12:44:40.411Z,15.00
2019-03-31T12:47:18.527Z,15.00
2019-03-31T12:49:56.509Z,15.50
2019-03-31T12:52:46.083Z,16.20
2019-03-31T12:55:14.658Z,15.70
2019-03-31T12:57:52.549Z,15.90
2019-03-31T13:00:30.294Z,16.50
2019-03-31T13:03:08.237Z,15.50
2019-03-31T13:05:46.147Z,15.60
2019-03-31T13:08:24.451Z,15.50
2019-03-31T13:11:02.313Z,15.50
2019-03-31T13:13:40.150Z,14.50
2019-03-31T13:16:18.362Z,14.80
2019-03-31T13:18:56.443Z,15.00
2019-03-31T13:21:34.676Z,15.30
2019-03-31T13:24:12.863Z,15.30
2019-03-31T13:26:50.700Z,15.50
2019-03-31T13:29:28.887Z,16.30
2019-03-31T13:32:07.164Z,16.80
2019-03-31T13:34:44.869Z,16.50
2019-03-31T13:37:23.104Z,15.50
2019-03-31T13:40:01.377Z,15.20
2019-03-31T13:42:39.482Z,14.80
2019-03-31T13:45:17.505Z,14.10
2019-03-31T13:47:58.484Z,13.80
2019-03-31T13:50:34.953Z,12.30
2019-03-31T13:53:16.119Z,12.40
2019-03-31T13:55:52.466Z,13.20
2019-03-31T13:58:31.039Z,13.70
2019-03-31T14:01:10.532Z,13.70
2019-03-31T14:03:48.396Z,13.20
2019-03-31T14:06:26.789Z,12.30
2019-03-31T14:09:07.554Z,12.50
2019-03-31T14:11:48.413Z,12.30
2019-03-31T14:14:24.655Z,12.30
2019-03-31T14:17:02.931Z,12.30
2019-03-31T14:19:40.719Z,11.50
2019-03-31T14:22:18.705Z,11.20
2019-03-31T14:24:56.553Z,11.00
2019-03-31T14:27:35.038Z,10.70
2019-03-31T14:30:14.668Z,10.70
2019-03-31T14:32:52.574Z,10.60
2019-03-31T14:35:30.318Z,10.00
2019-03-31T14:38:08.211Z,9.60
2019-03-31T14:40:46.518Z,9.40
2019-03-31T14:43:27.897Z,9.30
2019-03-31T14:46:04.323Z,9.10
2019-03-31T14:48:42.154Z,9.00
2019-03-31T14:51:20.524Z,8.70
2019-03-31T14:53:59.541Z,8.70
2019-03-31T14:56:38.454Z,8.80
2019-03-31T14:59:16.098Z,9.20
2019-03-31T15:01:54.165Z,9.10
2019-03-31T15:04:31.985Z,9.60
2019-03-31T15:07:09.816Z,10.50
2019-03-31T15:09:47.750Z,10.70
2019-03-31T15:12:25.715Z,11.10
2019-03-31T15:15:03.654Z,11.40
2019-03-31T15:17:42.015Z,10.80
2019-03-31T15:20:19.810Z,10.20
2019-03-31T15:22:57.716Z,10.00
2019-03-31T15:25:37.160Z,9.90
2019-03-31T15:28:15.117Z,9.70
2019-03-31T15:30:53.491Z,9.50
2019-03-31T15:33:31.950Z,9.50
2019-03-31T15:36:09.889Z,9.30
2019-03-31T15:38:48.109Z,9.20
2019-03-31T15:41:26.514Z,9.30
2019-03-31T15:44:04.439Z,9.20
2019-03-31T15:46:42.287Z,9.10
2019-03-31T15:49:20.732Z,8.80
2019-03-31T15:51:58.513Z,8.70
2019-03-31T15:54:36.856Z,8.60
2019-03-31T15:57:14.819Z,8.50
2019-03-31T15:59:53.581Z,8.50
2019-03-31T16:02:31.323Z,8.40
2019-03-31T16:05:12.695Z,8.20
2019-03-31T16:07:49.231Z,8.10
2019-03-31T16:10:27.389Z,8.10
2019-03-31T16:13:05.213Z,8.10
2019-03-31T16:15:42.611Z,8.00
2019-03-31T16:18:19.860Z,8.00
2019-03-31T16:20:57.744Z,8.00
2019-03-31T16:23:35.211Z,8.00
2019-03-31T16:26:12.832Z,7.90
2019-03-31T16:28:57.173Z,7.80
2019-03-31T16:31:34.509Z,7.70
2019-03-31T16:34:11.988Z,7.70
2019-03-31T16:36:55.127Z,7.60
2019-03-31T16:39:37.874Z,7.50
2019-03-31T16:42:11.999Z,7.50
2019-03-31T16:44:58.050Z,7.40
2019-03-31T16:47:28.386Z,7.40
2019-03-31T16:50:06.306Z,7.30
2019-03-31T16:52:44.993Z,7.30
2019-03-31T16:55:22.300Z,7.20
2019-03-31T16:58:00.126Z,7.20
2019-03-31T17:00:37.388Z,7.20
2019-03-31T17:03:18.069Z,7.20
2019-03-31T17:05:53.800Z,7.10
2019-03-31T17:08:36.815Z,7.10
2019-03-31T17:11:14.569Z,7.00
2019-03-31T17:13:51.869Z,6.90
2019-03-31T17:16:30.035Z,6.80
2019-03-31T17:19:07.577Z,6.80
2019-03-31T17:21:44.931Z,6.80
2019-03-31T17:24:22.885Z,6.70
2019-03-31T17:27:01.714Z,6.80
2019-03-31T17:29:39.763Z,6.70
2019-03-31T17:32:17.258Z,6.70
2019-03-31T17:34:54.929Z,6.70
2019-03-31T17:37:32.513Z,6.70
2019-03-31T17:40:10.362Z,6.70
2019-03-31T17:42:47.731Z,6.60
2019-03-31T17:45:25.101Z,6.60
2019-03-31T17:48:02.466Z,6.50
2019-03-31T17:50:39.775Z,6.50
2019-03-31T17:53:17.313Z,6.40
2019-03-31T17:55:54.645Z,6.40
2019-03-31T17:58:33.717Z,6.40
2019-03-31T18:01:11.490Z,6.30
2019-03-31T18:03:48.910Z,6.30
2019-03-31T18:06:28.475Z,6.20
2019-03-31T18:09:08.467Z,6.10
2019-03-31T18:11:45.786Z,6.00
2019-03-31T18:14:23.385Z,6.00
2019-03-31T18:17:00.666Z,6.00
2019-03-31T18:19:38.744Z,5.90
2019-03-31T18:22:17.064Z,5.90
2019-03-31T18:24:55.262Z,5.80
2019-03-31T18:27:32.558Z,5.60
2019-03-31T18:30:21.720Z,5.50
2019-03-31T18:33:00.603Z,5.40
2019-03-31T18:35:37.998Z,5.30
2019-03-31T18:38:15.459Z,5.30
2019-03-31T18:40:54.334Z,5.20
2019-03-31T18:43:31.518Z,5.10
2019-03-31T18:46:08.918Z,5.00
2019-03-31T18:48:46.814Z,4.90
2019-03-31T18:51:36.083Z,4.90
2019-03-31T18:54:32.531Z,4.80
2019-03-31T18:57:18.476Z,4.70
2019-03-31T19:00:10.648Z,4.60
2019-03-31T19:03:07.421Z,4.60
2019-03-31T19:06:02.519Z,4.50
2019-03-31T19:09:23.446Z,4.30
2019-03-31T19:12:25.621Z,4.40
2019-03-31T19:15:34.172Z,4.40
2019-03-31T19:18:28.057Z,4.50
2019-03-31T19:21:44.214Z,4.40
2019-03-31T19:24:34.477Z,4.50
2019-03-31T19:27:32.823Z,4.50
2019-03-31T19:30:19.231Z,4.60
2019-03-31T19:33:14.321Z,4.60
2019-03-31T19:36:00.021Z,4.60
2019-03-31T19:39:07.643Z,4.60
2019-03-31T19:41:54.935Z,4.60
2019-03-31T19:45:06.549Z,4.60
2019-03-31T19:48:01.027Z,4.60
2019-03-31T19:51:07.093Z,4.50
2019-03-31T19:54:00.846Z,4.40
2019-03-31T19:56:45.437Z,4.30
2019-03-31T19:59:45.208Z,4.20
2019-03-31T20:02:44.290Z,4.20
2019-03-31T20:05:43.885Z,4.10
2019-03-31T20:08:38.643Z,4.00
2019-03-31T20:11:26.211Z,3.80
2019-03-31T20:14:13.507Z,3.70
2019-03-31T20:17:06.202Z,3.60
2019-03-31T20:20:05.186Z,3.50
2019-03-31T20:22:52.396Z,3.40
2019-03-31T20:26:03.948Z,3.40
2019-03-31T20:28:48.242Z,3.40
2019-03-31T20:31:50.664Z,3.40
2019-03-31T20:34:50.359Z,3.30
2019-03-31T20:37:56.722Z,3.30
2019-03-31T20:40:38.953Z,3.30
2019-03-31T20:43:27.118Z,3.30
2019-03-31T20:46:04.756Z,3.30
2019-03-31T20:48:42.365Z,3.30
2019-03-31T20:51:21.240Z,3.20
2019-03-31T20:53:58.522Z,3.10
2019-03-31T20:56:35.902Z,3.10
2019-03-31T20:59:13.125Z,3.00
2019-03-31T21:02:02.297Z,3.00
2019-03-31T21:04:39.612Z,2.90
2019-03-31T21:07:17.423Z,2.90
2019-03-31T21:09:55.035Z,2.90
2019-03-31T21:12:32.336Z,2.90
2019-03-31T21:15:09.644Z,2.90
2019-03-31T21:17:47.055Z,2.90
2019-03-31T21:20:24.272Z,2.80
2019-03-31T21:23:01.855Z,2.70
2019-03-31T21:25:39.161Z,2.80
2019-03-31T21:28:16.509Z,2.80
2019-03-31T21:30:54.928Z,2.80
2019-03-31T21:33:32.159Z,2.80
2019-03-31T21:36:09.865Z,2.70
2019-03-31T21:38:47.509Z,2.70
2019-03-31T21:41:24.709Z,2.70
2019-03-31T21:44:02.177Z,2.70
2019-03-31T21:46:51.713Z,2.90
2019-03-31T21:49:29.247Z,2.80
2019-03-31T21:52:07.893Z,2.80
2019-03-31T21:54:45.591Z,2.80
2019-03-31T21:57:23.390Z,2.90
2019-03-31T22:00:01.110Z,2.80
2019-03-31T22:02:40.010Z,2.80
2019-03-31T22:05:17.129Z,2.80
2019-03-31T22:07:54.609Z,2.70
2019-03-31T22:10:31.908Z,2.60
2019-03-31T22:13:09.258Z,2.60
2019-03-31T22:15:46.556Z,2.50
2019-03-31T22:18:24.699Z,2.30
2019-03-31T22:21:02.092Z,2.30
2019-03-31T22:23:39.457Z,2.20
2019-03-31T22:26:19.451Z,2.10
2019-03-31T22:28:55.737Z,2.00
2019-03-31T22:31:33.714Z,2.00
2019-03-31T22:34:11.436Z,2.10
2019-03-31T22:36:49.270Z,2.20
2019-03-31T22:39:27.994Z,2.20
2019-03-31T22:42:05.375Z,2.20
2019-03-31T22:44:42.552Z,2.20
2019-03-31T22:47:19.804Z,2.20
2019-03-31T22:49:57.194Z,2.20
2019-03-31T22:52:35.332Z,2.10
2019-03-31T22:55:12.766Z,2.10
2019-03-31T22:57:50.555Z,2.20
2019-03-31T23:00:29.034Z,2.30
2019-03-31T23:03:06.206Z,2.40
2019-03-31T23:05:45.004Z,2.40
2019-03-31T23:08:22.302Z,2.40
2019-03-31T23:10:59.601Z,2.40
2019-03-31T23:13:36.905Z,2.40
2019-03-31T23:16:15.065Z,2.40
2019-03-31T23:18:52.485Z,2.40
2019-03-31T23:21:30.414Z,2.40
2019-03-31T23:24:07.753Z,2.50
2019-03-31T23:26:45.072Z,2.50
2019-03-31T23:29:22.309Z,2.50
2019-03-31T23:32:00.155Z,2.60
2019-03-31T23:34:38.640Z,2.60
2019-03-31T23:37:16.052Z,2.70
2019-03-31T23:39:53.283Z,2.70
2019-03-31T23:42:30.644Z,2.70
2019-03-31T23:45:08.865Z,2.80
2019-03-31T23:47:58.623Z,2.80
2019-03-31T23:50:36.408Z,3.00
2019-03-31T23:53:14.030Z,3.00
2019-03-31T23:55:51.794Z,3.00
2019-03-31T23:58:29.611Z,3.00
